createdAt,value
2023-02-08T00:01:11.051Z,99238.19
2023-02-08T00:03:39.593Z,99234.56
2023-02-08T00:06:08.545Z,99239.06
2023-02-08T00:08:37.145Z,99231.94
2023-02-08T00:11:05.942Z,99230.13
2023-02-08T00:13:34.626Z,99238.19
2023-02-08T00:16:04.501Z,99241.81
2023-02-08T00:18:32.984Z,99246.28
2023-02-08T00:21:01.472Z,99236.50
2023-02-08T00:23:29.779Z,99239.19
2023-02-08T00:25:58.156Z,99238.31
2023-02-08T00:28:26.516Z,99246.34
2023-02-08T00:30:55.185Z,99247.25
2023-02-08T00:33:25.367Z,99242.84
2023-02-08T00:35:59.349Z,99241.06
2023-02-08T00:38:27.591Z,99233.00
2023-02-08T00:40:55.832Z,99236.66
2023-02-08T00:43:25.959Z,99240.22
2023-02-08T00:45:55.924Z,99246.50
2023-02-08T00:48:27.741Z,99248.28
2023-02-08T00:51:00.864Z,99253.72
2023-02-08T00:53:29.594Z,99253.72
2023-02-08T00:55:58.163Z,99260.91
2023-02-08T00:58:27.239Z,99260.91
2023-02-08T01:00:55.640Z,99252.00
2023-02-08T01:03:24.450Z,99256.47
2023-02-08T01:05:54.546Z,99256.47
2023-02-08T01:08:22.985Z,99264.53
2023-02-08T01:10:51.443Z,99257.38
2023-02-08T01:13:19.690Z,99252.97
2023-02-08T01:15:48.320Z,99245.78
2023-02-08T01:18:16.928Z,99246.72
2023-02-08T01:20:45.389Z,99249.38
2023-02-08T01:23:15.260Z,99246.72
2023-02-08T01:25:43.487Z,99243.09
2023-02-08T01:28:11.974Z,99246.72
2023-02-08T01:30:40.896Z,99248.50
2023-02-08T01:33:10.087Z,99246.72
2023-02-08T01:35:38.623Z,99236.91
2023-02-08T01:38:07.327Z,99230.59
2023-02-08T01:40:37.521Z,99237.75
2023-02-08T01:43:08.179Z,99237.81
2023-02-08T01:45:36.552Z,99234.25
2023-02-08T01:48:08.195Z,99229.75
2023-02-08T01:50:43.565Z,99224.41
2023-02-08T01:53:12.489Z,99221.78
2023-02-08T01:55:45.786Z,99225.34
2023-02-08T01:58:15.497Z,99230.75
2023-02-08T02:00:44.106Z,99221.84
2023-02-08T02:03:14.344Z,99225.44
2023-02-08T02:05:43.856Z,99224.50
2023-02-08T02:08:12.228Z,99229.00
2023-02-08T02:10:42.874Z,99226.31
2023-02-08T02:13:15.043Z,99229.00
2023-02-08T02:15:45.278Z,99235.28
2023-02-08T02:18:13.912Z,99234.44
2023-02-08T02:20:54.305Z,99231.75
2023-02-08T02:23:52.301Z,99239.78
2023-02-08T02:26:58.988Z,99229.09
2023-02-08T02:30:02.291Z,99229.19
2023-02-08T02:32:49.756Z,99229.16
2023-02-08T02:35:21.239Z,99235.41
2023-02-08T02:37:54.314Z,99238.09
2023-02-08T02:40:25.378Z,99230.94
2023-02-08T02:43:17.456Z,99234.50
2023-02-08T02:45:48.311Z,99231.88
2023-02-08T02:48:20.363Z,99234.56
2023-02-08T02:50:50.340Z,99238.13
2023-02-08T02:53:21.581Z,99229.19
2023-02-08T02:55:52.142Z,99233.69
2023-02-08T02:58:21.347Z,99239.94
2023-02-08T03:00:54.005Z,99245.31
2023-02-08T03:03:24.931Z,99240.84
2023-02-08T03:05:53.539Z,99243.53
2023-02-08T03:08:40.337Z,99247.16
2023-02-08T03:11:16.110Z,99248.06
2023-02-08T03:14:09.356Z,99249.03
2023-02-08T03:16:46.502Z,99244.53
2023-02-08T03:19:19.573Z,99240.97
2023-02-08T03:21:50.234Z,99241.03
2023-02-08T03:24:24.635Z,99245.50
2023-02-08T03:26:56.261Z,99258.94
2023-02-08T03:29:29.271Z,99250.88
2023-02-08T03:31:59.230Z,99263.34
2023-02-08T03:34:31.053Z,99273.25
2023-02-08T03:37:00.210Z,99275.09
2023-02-08T03:39:30.458Z,99284.00
2023-02-08T03:42:00.564Z,99284.00
2023-02-08T03:44:30.197Z,99289.38
2023-02-08T03:46:59.437Z,99295.69
2023-02-08T03:49:31.798Z,99286.75
2023-02-08T03:52:01.700Z,99290.31
2023-02-08T03:54:30.895Z,99287.63
2023-02-08T03:57:01.299Z,99291.25
2023-02-08T03:59:32.347Z,99292.16
2023-02-08T04:02:01.868Z,99296.63
2023-02-08T04:04:33.652Z,99289.44
2023-02-08T04:07:01.992Z,99279.56
2023-02-08T04:09:30.530Z,99282.25
2023-02-08T04:11:58.940Z,99283.19
2023-02-08T04:14:27.709Z,99285.88
2023-02-08T04:16:56.280Z,99288.56
2023-02-08T04:19:24.616Z,99293.97
2023-02-08T04:21:54.496Z,99292.16
2023-02-08T04:24:22.828Z,99293.09
2023-02-08T04:26:51.100Z,99292.16
2023-02-08T04:29:19.561Z,99297.47
2023-02-08T04:31:47.899Z,99301.06
2023-02-08T04:34:16.484Z,99298.41
2023-02-08T04:36:44.938Z,99302.06
2023-02-08T04:39:15.122Z,99299.50
2023-02-08T04:41:43.681Z,99306.72
2023-02-08T04:44:12.195Z,99297.81
2023-02-08T04:46:40.750Z,99304.09
2023-02-08T04:49:09.349Z,99305.88
2023-02-08T04:51:37.948Z,99299.59
2023-02-08T04:54:06.485Z,99298.72
2023-02-08T04:56:36.641Z,99291.59
2023-02-08T04:59:05.155Z,99301.44
2023-02-08T05:01:33.659Z,99294.28
2023-02-08T05:04:02.385Z,99299.66
2023-02-08T05:06:30.634Z,99299.69
2023-02-08T05:08:59.068Z,99301.50
2023-02-08T05:11:27.581Z,99302.38
2023-02-08T05:13:57.967Z,99302.38
2023-02-08T05:16:26.560Z,99306.00
2023-02-08T05:18:56.855Z,99307.72
2023-02-08T05:21:25.119Z,99310.41
2023-02-08T05:23:53.574Z,99306.00
2023-02-08T05:26:21.878Z,99322.03
2023-02-08T05:28:50.239Z,99315.78
2023-02-08T05:31:21.900Z,99311.31
2023-02-08T05:33:50.265Z,99314.03
2023-02-08T05:36:18.479Z,99322.97
2023-02-08T05:38:46.820Z,99318.47
2023-02-08T05:41:14.930Z,99322.91
2023-02-08T05:43:43.193Z,99312.19
2023-02-08T05:46:11.434Z,99312.19
2023-02-08T05:48:41.088Z,99313.06
2023-02-08T05:51:09.504Z,99316.63
2023-02-08T05:53:38.037Z,99313.94
2023-02-08T05:56:06.687Z,99316.63
2023-02-08T05:58:35.041Z,99317.50
2023-02-08T06:01:03.343Z,99319.28
2023-02-08T06:03:31.612Z,99326.44
2023-02-08T06:06:02.888Z,99324.66
2023-02-08T06:08:31.144Z,99326.44
2023-02-08T06:10:59.332Z,99339.81
2023-02-08T06:13:29.364Z,99348.75
2023-02-08T06:15:57.728Z,99355.91
2023-02-08T06:18:25.956Z,99357.69
2023-02-08T06:20:54.388Z,99359.47
2023-02-08T06:23:24.116Z,99361.25
2023-02-08T06:25:52.697Z,99367.44
2023-02-08T06:28:20.898Z,99374.53
2023-02-08T06:30:50.306Z,99372.75
2023-02-08T06:33:18.461Z,99370.94
2023-02-08T06:35:47.202Z,99371.88
2023-02-08T06:38:15.736Z,99386.16
2023-02-08T06:40:45.386Z,99387.97
2023-02-08T06:43:13.686Z,99396.06
2023-02-08T06:45:43.014Z,99396.97
2023-02-08T06:48:11.332Z,99401.50
2023-02-08T06:50:39.957Z,99398.81
2023-02-08T06:53:08.339Z,99397.88
2023-02-08T06:55:36.876Z,99397.88
2023-02-08T06:58:06.476Z,99400.56
2023-02-08T07:00:34.704Z,99410.41
2023-02-08T07:03:03.031Z,99412.25
2023-02-08T07:05:31.290Z,99411.38
2023-02-08T07:07:59.432Z,99412.28
2023-02-08T07:10:27.768Z,99415.91
2023-02-08T07:12:55.955Z,99409.69
2023-02-08T07:15:25.690Z,99408.75
2023-02-08T07:17:54.029Z,99412.38
2023-02-08T07:20:22.496Z,99409.59
2023-02-08T07:22:50.787Z,99396.16
2023-02-08T07:25:19.226Z,99406.88
2023-02-08T07:27:47.432Z,99419.34
2023-02-08T07:30:15.928Z,99419.34
2023-02-08T07:32:45.385Z,99416.66
2023-02-08T07:35:13.572Z,99416.59
2023-02-08T07:37:41.722Z,99405.84
2023-02-08T07:40:11.647Z,99413.06
2023-02-08T07:42:40.044Z,99415.69
2023-02-08T07:45:19.766Z,99419.28
2023-02-08T07:47:49.498Z,99420.13
2023-02-08T07:50:17.940Z,99418.22
2023-02-08T07:52:47.601Z,99416.38
2023-02-08T07:55:17.250Z,99413.66
2023-02-08T07:57:45.629Z,99423.47
2023-02-08T08:00:14.705Z,99433.31
2023-02-08T08:02:43.063Z,99430.63
2023-02-08T08:05:12.750Z,99419.88
2023-02-08T08:07:41.000Z,99436.88
2023-02-08T08:10:09.420Z,99436.88
2023-02-08T08:12:37.851Z,99433.31
2023-02-08T08:15:06.970Z,99435.09
2023-02-08T08:17:35.218Z,99437.78
2023-02-08T08:20:03.433Z,99455.63
2023-02-08T08:22:33.353Z,99465.44
2023-02-08T08:25:01.631Z,99459.19
2023-02-08T08:27:29.893Z,99461.88
2023-02-08T08:30:00.027Z,99455.59
2023-02-08T08:32:28.368Z,99452.03
2023-02-08T08:34:56.613Z,99449.34
2023-02-08T08:37:24.813Z,99447.50
2023-02-08T08:39:54.560Z,99451.91
2023-02-08T08:42:22.764Z,99457.28
2023-02-08T08:44:50.808Z,99464.44
2023-02-08T08:47:18.956Z,99468.97
2023-02-08T08:49:47.154Z,99467.13
2023-02-08T08:52:15.542Z,99471.56
2023-02-08T08:54:43.689Z,99476.91
2023-02-08T08:57:13.324Z,99484.13
2023-02-08T08:59:41.592Z,99473.31
2023-02-08T09:02:11.629Z,99484.97
2023-02-08T09:04:41.405Z,99496.66
2023-02-08T09:07:09.784Z,99503.00
2023-02-08T09:09:38.267Z,99502.03
2023-02-08T09:12:06.707Z,99507.28
2023-02-08T09:14:36.429Z,99510.81
2023-02-08T09:17:04.660Z,99508.97
2023-02-08T09:19:32.876Z,99504.44
2023-02-08T09:22:01.072Z,99498.16
2023-02-08T09:24:29.591Z,99493.63
2023-02-08T09:26:57.658Z,99493.50
2023-02-08T09:29:27.208Z,99497.97
2023-02-08T09:31:56.984Z,99499.63
2023-02-08T09:34:25.333Z,99501.38
2023-02-08T09:36:53.512Z,99495.94
2023-02-08T09:39:23.747Z,99488.72
2023-02-08T09:42:32.222Z,99487.81
2023-02-08T09:45:09.810Z,99488.66
2023-02-08T09:47:41.570Z,99493.16
2023-02-08T09:50:12.082Z,99494.03
2023-02-08T09:52:42.079Z,99501.19
2023-02-08T09:55:19.240Z,99498.53
2023-02-08T09:57:47.392Z,99496.72
2023-02-08T10:00:17.619Z,99496.78
2023-02-08T10:02:47.340Z,99499.47
2023-02-08T10:05:16.431Z,99488.72
2023-02-08T10:07:44.694Z,99486.09
2023-02-08T10:10:16.134Z,99481.53
2023-02-08T10:12:46.530Z,99476.19
2023-02-08T10:15:19.801Z,99485.13
2023-02-08T10:18:24.691Z,99480.72
2023-02-08T10:21:14.384Z,99465.50
2023-02-08T10:23:51.341Z,99469.06
2023-02-08T10:26:24.060Z,99468.13
2023-02-08T10:29:06.877Z,99461.91
2023-02-08T10:31:42.675Z,99468.13
2023-02-08T10:34:20.281Z,99469.03
2023-02-08T10:36:48.514Z,99465.44
2023-02-08T10:39:18.077Z,99460.97
2023-02-08T10:41:46.574Z,99463.59
2023-02-08T10:44:20.125Z,99460.06
2023-02-08T10:46:49.875Z,99454.72
2023-02-08T10:49:21.853Z,99459.22
2023-02-08T10:51:50.352Z,99458.28
2023-02-08T10:54:19.109Z,99461.84
2023-02-08T10:56:49.014Z,99450.22
2023-02-08T10:59:21.492Z,99443.06
2023-02-08T11:01:50.170Z,99445.75
2023-02-08T11:04:19.845Z,99441.25
2023-02-08T11:06:48.722Z,99438.56
2023-02-08T11:09:27.488Z,99436.75
2023-02-08T11:11:55.647Z,99424.19
2023-02-08T11:14:35.034Z,99425.13
2023-02-08T11:17:23.695Z,99427.84
2023-02-08T11:19:53.535Z,99429.69
2023-02-08T11:22:22.604Z,99423.41
2023-02-08T11:24:57.016Z,99422.59
2023-02-08T11:27:32.256Z,99421.69
2023-02-08T11:30:19.224Z,99417.28
2023-02-08T11:32:48.159Z,99410.13
2023-02-08T11:35:23.850Z,99420.03
2023-02-08T11:37:52.877Z,99419.13
2023-02-08T11:40:23.035Z,99411.97
2023-02-08T11:42:51.318Z,99413.75
2023-02-08T11:45:21.117Z,99409.28
2023-02-08T11:47:49.629Z,99404.81
2023-02-08T11:50:25.752Z,99399.44
2023-02-08T11:52:56.732Z,99400.31
2023-02-08T11:55:26.064Z,99403.00
2023-02-08T11:57:55.031Z,99398.53
2023-02-08T12:00:25.568Z,99400.41
2023-02-08T12:02:54.564Z,99395.91
2023-02-08T12:05:26.415Z,99390.53
2023-02-08T12:08:01.135Z,99384.28
2023-02-08T12:10:45.988Z,99387.91
2023-02-08T12:13:35.953Z,99385.22
2023-02-08T12:16:10.839Z,99387.88
2023-02-08T12:18:46.125Z,99387.88
2023-02-08T12:21:16.928Z,99379.81
2023-02-08T12:23:49.191Z,99382.44
2023-02-08T12:26:24.941Z,99382.38
2023-02-08T12:29:18.833Z,99369.84
2023-02-08T12:31:54.162Z,99368.03
2023-02-08T12:34:24.246Z,99372.47
2023-02-08T12:37:26.711Z,99361.78
2023-02-08T12:40:27.320Z,99364.41
2023-02-08T12:43:00.645Z,99361.72
2023-02-08T12:45:39.765Z,99366.19
2023-02-08T12:48:14.802Z,99360.81
2023-02-08T12:50:46.054Z,99353.66
2023-02-08T12:53:19.199Z,99357.19
2023-02-08T12:55:47.464Z,99358.13
2023-02-08T12:58:23.813Z,99350.94
2023-02-08T13:00:51.983Z,99349.13
2023-02-08T13:03:35.013Z,99344.63
2023-02-08T13:06:04.458Z,99341.06
2023-02-08T13:08:35.767Z,99337.53
2023-02-08T13:11:19.092Z,99332.19
2023-02-08T13:13:52.571Z,99338.44
2023-02-08T13:16:22.619Z,99335.94
2023-02-08T13:18:54.231Z,99337.88
2023-02-08T13:21:24.373Z,99324.50
2023-02-08T13:23:54.031Z,99328.09
2023-02-08T13:26:24.656Z,99324.50
2023-02-08T13:28:54.120Z,99334.22
2023-02-08T13:31:24.202Z,99334.22
2023-02-08T13:34:01.217Z,99328.84
2023-02-08T13:36:31.597Z,99333.41
2023-02-08T13:39:01.897Z,99342.34
2023-02-08T13:41:30.410Z,99339.78
2023-02-08T13:43:59.476Z,99340.59
2023-02-08T13:46:28.710Z,99336.16
2023-02-08T13:48:57.964Z,99334.41
2023-02-08T13:51:56.184Z,99335.31
2023-02-08T13:54:25.729Z,99339.78
2023-02-08T13:56:54.100Z,99339.78
2023-02-08T13:59:41.928Z,99335.31
2023-02-08T14:02:26.896Z,99330.88
2023-02-08T14:05:13.421Z,99333.56
2023-02-08T14:07:43.497Z,99330.88
2023-02-08T14:10:37.678Z,99328.16
2023-02-08T14:13:09.268Z,99323.66
2023-02-08T14:15:40.949Z,99324.50
2023-02-08T14:18:26.333Z,99325.41
2023-02-08T14:21:03.905Z,99324.56
2023-02-08T14:23:33.404Z,99325.53
2023-02-08T14:26:05.364Z,99333.50
2023-02-08T14:28:34.833Z,99328.19
2023-02-08T14:31:04.432Z,99327.38
2023-02-08T14:33:33.523Z,99332.75
2023-02-08T14:36:04.134Z,99330.09
2023-02-08T14:38:48.289Z,99333.66
2023-02-08T14:42:00.672Z,99330.13
2023-02-08T14:44:59.484Z,99325.66
2023-02-08T14:48:07.611Z,99319.41
2023-02-08T14:50:41.250Z,99324.81
2023-02-08T14:53:26.622Z,99328.41
2023-02-08T14:55:57.578Z,99330.19
2023-02-08T14:58:29.799Z,99324.78
2023-02-08T15:00:59.079Z,99322.97
2023-02-08T15:03:39.603Z,99322.97
2023-02-08T15:06:49.762Z,99327.44
2023-02-08T15:09:20.296Z,99325.59
2023-02-08T15:11:57.152Z,99323.81
2023-02-08T15:14:27.135Z,99328.22
2023-02-08T15:16:55.630Z,99322.97
2023-02-08T15:19:25.857Z,99321.13
2023-02-08T15:21:54.079Z,99310.25
2023-02-08T15:24:23.690Z,99317.34
2023-02-08T15:26:52.682Z,99310.22
2023-02-08T15:29:26.126Z,99318.28
2023-02-08T15:31:59.893Z,99321.81
2023-02-08T15:34:28.117Z,99327.13
2023-02-08T15:36:57.516Z,99321.75
2023-02-08T15:39:35.917Z,99324.50
2023-02-08T15:42:04.167Z,99323.59
2023-02-08T15:44:33.096Z,99326.28
2023-02-08T15:47:03.368Z,99327.19
2023-02-08T15:49:34.014Z,99338.78
2023-02-08T15:52:02.221Z,99329.88
2023-02-08T15:54:31.531Z,99326.34
2023-02-08T15:57:01.144Z,99327.94
2023-02-08T15:59:35.000Z,99328.84
2023-02-08T16:02:14.014Z,99327.91
2023-02-08T16:04:45.433Z,99335.94
2023-02-08T16:07:21.004Z,99332.34
2023-02-08T16:09:49.597Z,99322.47
2023-02-08T16:12:21.077Z,99328.72
2023-02-08T16:14:52.724Z,99328.72
2023-02-08T16:17:45.222Z,99336.72
2023-02-08T16:20:23.873Z,99334.03
2023-02-08T16:22:56.995Z,99337.66
2023-02-08T16:25:35.893Z,99344.91
2023-02-08T16:28:04.516Z,99351.19
2023-02-08T16:30:32.916Z,99345.91
2023-02-08T16:33:08.760Z,99351.22
2023-02-08T16:35:38.822Z,99350.34
2023-02-08T16:38:10.226Z,99349.44
2023-02-08T16:40:49.082Z,99353.91
2023-02-08T16:43:18.146Z,99339.66
2023-02-08T16:45:49.385Z,99342.41
2023-02-08T16:48:35.051Z,99348.69
2023-02-08T16:51:03.554Z,99350.50
2023-02-08T16:53:41.393Z,99339.78
2023-02-08T16:56:10.681Z,99349.63
2023-02-08T16:58:39.048Z,99354.16
2023-02-08T17:01:08.351Z,99355.06
2023-02-08T17:03:39.386Z,99363.09
2023-02-08T17:06:08.297Z,99362.22
2023-02-08T17:08:37.668Z,99369.34
2023-02-08T17:11:06.297Z,99375.59
2023-02-08T17:13:34.484Z,99372.00
2023-02-08T17:16:02.724Z,99372.84
2023-02-08T17:18:32.708Z,99370.16
2023-02-08T17:21:05.184Z,99365.63
2023-02-08T17:23:33.502Z,99369.13
2023-02-08T17:26:01.568Z,99363.69
2023-02-08T17:28:29.904Z,99384.22
2023-02-08T17:30:58.384Z,99374.28
2023-02-08T17:33:29.410Z,99372.44
2023-02-08T17:35:57.600Z,99382.34
2023-02-08T17:38:28.654Z,99376.09
2023-02-08T17:40:57.056Z,99379.63
2023-02-08T17:43:25.572Z,99384.00
2023-02-08T17:45:53.729Z,99380.44
2023-02-08T17:48:22.062Z,99382.19
2023-02-08T17:50:51.146Z,99379.50
2023-02-08T17:53:19.444Z,99377.69
2023-02-08T17:55:49.037Z,99377.66
2023-02-08T17:58:17.719Z,99381.97
2023-02-08T18:00:45.896Z,99380.97
2023-02-08T18:03:14.208Z,99382.63
2023-02-08T18:05:42.573Z,99382.53
2023-02-08T18:08:10.700Z,99381.59
2023-02-08T18:10:39.099Z,99377.09
2023-02-08T18:13:08.636Z,99377.16
2023-02-08T18:15:36.976Z,99381.66
2023-02-08T18:18:05.445Z,99386.13
2023-02-08T18:20:33.791Z,99383.44
2023-02-08T18:23:02.502Z,99388.06
2023-02-08T18:25:30.684Z,99390.78
2023-02-08T18:27:58.935Z,99391.69
2023-02-08T18:30:28.563Z,99388.06
2023-02-08T18:32:57.100Z,99388.13
2023-02-08T18:35:25.320Z,99379.16
2023-02-08T18:37:53.820Z,99387.22
2023-02-08T18:40:21.975Z,99383.66
2023-02-08T18:42:50.362Z,99380.09
2023-02-08T18:45:18.489Z,99382.88
2023-02-08T18:47:48.421Z,99381.97
2023-02-08T18:50:17.928Z,99383.72
2023-02-08T18:52:47.644Z,99374.75
2023-02-08T18:55:16.021Z,99379.31
2023-02-08T18:57:44.239Z,99378.44
2023-02-08T19:00:14.254Z,99371.25
2023-02-08T19:02:42.592Z,99370.34
2023-02-08T19:05:12.140Z,99362.28
2023-02-08T19:07:40.296Z,99365.88
2023-02-08T19:10:09.267Z,99364.97
2023-02-08T19:12:37.974Z,99365.84
2023-02-08T19:15:06.761Z,99374.81
2023-02-08T19:17:35.428Z,99366.88
2023-02-08T19:20:03.827Z,99366.91
2023-02-08T19:22:33.529Z,99372.28
2023-02-08T19:25:01.806Z,99377.66
2023-02-08T19:27:30.012Z,99371.41
2023-02-08T19:29:58.124Z,99378.59
2023-02-08T19:32:26.237Z,99377.66
2023-02-08T19:34:54.377Z,99383.00
2023-02-08T19:37:22.490Z,99385.69
2023-02-08T19:39:52.173Z,99393.75
2023-02-08T19:42:20.362Z,99392.03
2023-02-08T19:44:48.521Z,99398.28
2023-02-08T19:47:16.716Z,99391.13
2023-02-08T19:49:45.036Z,99392.03
2023-02-08T19:52:13.402Z,99394.69
2023-02-08T19:54:41.679Z,99384.00
2023-02-08T19:57:12.763Z,99392.94
2023-02-08T19:59:40.926Z,99388.50
2023-02-08T20:02:11.553Z,99386.69
2023-02-08T20:04:39.833Z,99388.50
2023-02-08T20:07:08.142Z,99384.03
2023-02-08T20:09:36.341Z,99384.94
2023-02-08T20:12:04.617Z,99389.41
2023-02-08T20:14:34.761Z,99381.41
2023-02-08T20:17:03.536Z,99388.59
2023-02-08T20:19:31.788Z,99384.09
2023-02-08T20:22:00.044Z,99384.09
2023-02-08T20:24:28.544Z,99384.16
2023-02-08T20:26:56.797Z,99387.72
2023-02-08T20:29:26.424Z,99392.22
2023-02-08T20:31:57.922Z,99394.91
2023-02-08T20:34:26.275Z,99395.81
2023-02-08T20:37:06.290Z,99397.63
2023-02-08T20:39:35.678Z,99397.63
2023-02-08T20:42:03.862Z,99400.34
2023-02-08T20:44:32.035Z,99403.03
2023-02-08T20:47:01.669Z,99402.19
2023-02-08T20:49:32.314Z,99405.72
2023-02-08T20:52:00.754Z,99397.66
2023-02-08T20:54:28.916Z,99402.19
2023-02-08T20:56:57.389Z,99399.50
2023-02-08T20:59:25.933Z,99400.34
2023-02-08T21:01:54.129Z,99391.44
2023-02-08T21:04:24.001Z,99395.91
2023-02-08T21:06:52.323Z,99401.28
2023-02-08T21:09:20.842Z,99396.81
2023-02-08T21:11:49.058Z,99399.50
2023-02-08T21:14:19.105Z,99406.66
2023-02-08T21:16:48.571Z,99402.19
2023-02-08T21:19:17.391Z,99403.16
2023-02-08T21:21:47.550Z,99402.25
2023-02-08T21:24:15.756Z,99403.16
2023-02-08T21:26:43.949Z,99398.69
2023-02-08T21:29:12.904Z,99396.00
2023-02-08T21:31:41.093Z,99391.56
2023-02-08T21:34:09.423Z,99392.47
2023-02-08T21:36:37.525Z,99388.94
2023-02-08T21:39:07.300Z,99396.09
2023-02-08T21:41:35.832Z,99396.09
2023-02-08T21:44:04.543Z,99391.66
2023-02-08T21:46:32.935Z,99386.34
2023-02-08T21:49:24.297Z,99395.22
2023-02-08T21:52:10.051Z,99388.97
2023-02-08T21:54:42.976Z,99381.91
2023-02-08T21:57:12.530Z,99381.94
2023-02-08T21:59:40.822Z,99389.06
2023-02-08T22:02:09.860Z,99391.75
2023-02-08T22:04:38.165Z,99389.13
2023-02-08T22:07:06.461Z,99388.19
2023-02-08T22:09:36.046Z,99391.81
2023-02-08T22:12:06.225Z,99396.28
2023-02-08T22:14:35.412Z,99390.94
2023-02-08T22:17:03.586Z,99397.19
2023-02-08T22:19:31.827Z,99402.56
2023-02-08T22:22:00.032Z,99403.53
2023-02-08T22:24:28.282Z,99399.06
2023-02-08T22:26:56.519Z,99395.53
2023-02-08T22:29:26.164Z,99400.00
2023-02-08T22:31:54.491Z,99398.22
2023-02-08T22:34:22.801Z,99388.44
2023-02-08T22:36:50.979Z,99386.66
2023-02-08T22:39:19.304Z,99396.47
2023-02-08T22:41:47.871Z,99390.22
2023-02-08T22:44:16.332Z,99383.97
2023-02-08T22:46:46.139Z,99395.66
2023-02-08T22:49:14.557Z,99390.28
2023-02-08T22:51:42.772Z,99385.81
2023-02-08T22:54:11.054Z,99390.34
2023-02-08T22:56:39.274Z,99386.75
2023-02-08T22:59:07.612Z,99388.56
2023-02-08T23:01:35.850Z,99385.94
2023-02-08T23:04:05.645Z,99387.72
2023-02-08T23:06:34.528Z,99388.66
2023-02-08T23:09:02.853Z,99382.41
2023-02-08T23:11:31.069Z,99386.00
2023-02-08T23:13:59.208Z,99383.31
2023-02-08T23:16:27.538Z,99381.56
2023-02-08T23:18:55.718Z,99376.22
2023-02-08T23:21:25.337Z,99377.16
2023-02-08T23:23:53.555Z,99377.19
2023-02-08T23:26:22.055Z,99379.84
2023-02-08T23:28:50.688Z,99387.06
2023-02-08T23:31:19.128Z,99383.47
2023-02-08T23:33:47.408Z,99376.34
2023-02-08T23:36:16.863Z,99367.44
2023-02-08T23:38:46.508Z,99368.34
2023-02-08T23:41:15.849Z,99367.47
2023-02-08T23:43:44.026Z,99364.81
2023-02-08T23:46:17.693Z,99363.91
2023-02-08T23:48:47.765Z,99362.13
2023-02-08T23:51:16.154Z,99362.13
2023-02-08T23:53:44.384Z,99357.69
2023-02-08T23:56:15.621Z,99356.78
2023-02-08T23:58:43.869Z,99363.06
